Time;durP1;ratioP1;P1;durP2;ratioP2;P2;SDS_P1;SDS_P2;PMS_P1;PMS_P2;Temp;Humidity;BMP_temperature;BMP_pressure;BME280_temperature;BME280_humidity;BME280_pressure;Samples;Min_cycle;Max_cycle;Signal;HPM_P1;HPM_P2
2021/01/09 00:00:14;;;;;;;51.23;22.63;;;;;;;-0.56;83.56;98628.81;250144;1148;22970;-80
2021/01/09 00:05:16;;;;;;;45.40;20.20;;;;;;;-0.52;84.61;98635.24;250478;1148;27315;-77
2021/01/09 00:10:18;;;;;;;48.13;20.80;;;;;;;-0.50;84.56;98641.11;250238;1148;22905;-80
2021/01/09 00:15:20;;;;;;;41.20;19.00;;;;;;;-0.48;84.26;98630.36;250263;1148;22995;-80
2021/01/09 00:20:23;;;;;;;36.50;17.07;;;;;;;-0.48;84.56;98639.05;250238;1148;24352;-79
2021/01/09 00:25:26;;;;;;;39.20;18.23;;;;;;;-0.54;84.27;98638.09;250339;1148;22957;-81
2021/01/09 00:30:28;;;;;;;39.30;17.90;;;;;;;-0.57;84.24;98633.27;250149;1148;26037;-79
2021/01/09 00:35:30;;;;;;;41.60;17.40;;;;;;;-0.62;83.20;98635.75;250188;1148;23606;-79
2021/01/09 00:40:32;;;;;;;33.20;15.87;;;;;;;-0.62;84.16;98640.22;250274;1148;23041;-80
2021/01/09 00:45:36;;;;;;;36.47;17.43;;;;;;;-0.62;83.62;98637.59;250029;1148;26367;-79
2021/01/09 00:50:38;;;;;;;30.80;14.30;;;;;;;-0.62;83.46;98642.85;250197;1148;22960;-79
2021/01/09 00:55:40;;;;;;;30.03;14.93;;;;;;;-0.64;83.70;98639.62;250206;1148;22942;-79
2021/01/09 01:00:42;;;;;;;33.50;15.17;;;;;;;-0.66;83.53;98639.84;250024;1148;22941;-77
2021/01/09 01:05:45;;;;;;;28.83;13.97;;;;;;;-0.63;84.34;98638.60;249970;1148;22956;-80
2021/01/09 01:10:48;;;;;;;29.37;13.63;;;;;;;-0.60;84.13;98646.88;250160;1148;22946;-77
2021/01/09 01:15:52;;;;;;;36.30;16.30;;;;;;;-0.53;84.52;98642.34;250397;1148;26028;-79
2021/01/09 01:20:54;;;;;;;30.05;14.65;;;;;;;-0.53;83.70;98642.34;250458;1148;22943;-80
2021/01/09 01:25:56;;;;;;;30.23;15.37;;;;;;;-0.51;83.51;98657.91;250186;1148;22903;-79
2021/01/09 01:30:58;;;;;;;34.07;16.13;;;;;;;-0.49;84.31;98649.80;250191;1148;22967;-79
2021/01/09 01:36:01;;;;;;;30.23;15.23;;;;;;;-0.41;83.58;98647.67;250444;1148;22994;-79
2021/01/09 01:41:05;;;;;;;33.20;16.25;;;;;;;-0.28;84.34;98645.91;250306;1147;22909;-80
2021/01/09 01:46:09;;;;;;;32.60;16.85;;;;;;;-0.27;83.58;98648.32;250338;1148;22964;-79
2021/01/09 01:51:13;;;;;;;29.37;14.30;;;;;;;-0.21;83.73;98650.09;250292;1148;22977;-80
2021/01/09 01:56:15;;;;;;;28.47;13.53;;;;;;;-0.20;84.16;98648.25;250514;1147;23106;-79
2021/01/09 02:01:18;;;;;;;30.77;15.10;;;;;;;-0.29;83.58;98647.75;250286;1148;22972;-79
2021/01/09 02:06:24;;;;;;;29.87;14.77;;;;;;;-0.34;83.19;98642.34;250389;1148;22964;-79
2021/01/09 02:11:43;;;;;;;28.10;14.35;;;;;;;-0.37;84.06;98648.05;250195;1148;22924;-79
2021/01/09 02:16:48;;;;;;;20.45;11.05;;;;;;;-0.37;83.57;98650.67;250243;1148;22943;-78
2021/01/09 02:21:51;;;;;;;26.83;13.80;;;;;;;-0.44;83.35;98645.48;250472;1148;22947;-79
2021/01/09 02:26:53;;;;;;;27.33;13.70;;;;;;;-0.52;82.74;98649.22;250500;1147;25909;-80
2021/01/09 02:32:02;;;;;;;25.57;12.50;;;;;;;-0.55;83.29;98644.37;250200;1148;22886;-79
2021/01/09 02:37:06;;;;;;;24.37;12.93;;;;;;;-0.56;83.75;98653.31;250711;1148;23001;-79
2021/01/09 02:42:09;;;;;;;18.13;10.83;;;;;;;-0.52;84.35;98653.66;250386;1147;22943;-80
2021/01/09 02:47:11;;;;;;;19.00;10.35;;;;;;;-0.59;83.78;98651.13;250387;1148;22930;-81
2021/01/09 02:52:14;;;;;;;22.40;12.30;;;;;;;-0.64;83.42;98656.23;249984;1148;23136;-82
2021/01/09 02:57:17;;;;;;;20.05;11.25;;;;;;;-0.68;83.72;98649.79;250305;1147;22967;-79
2021/01/09 03:02:19;;;;;;;18.53;10.47;;;;;;;-0.68;83.43;98651.63;250255;1148;22970;-80
2021/01/09 03:07:22;;;;;;;17.90;10.35;;;;;;;-0.68;83.09;98651.63;249989;1148;22918;-79
2021/01/09 03:12:24;;;;;;;19.83;10.90;;;;;;;-0.63;83.34;98660.48;249982;1148;22974;-80
2021/01/09 03:17:30;;;;;;;19.03;10.30;;;;;;;-0.55;84.54;98660.16;250650;1148;23099;-80
2021/01/09 03:22:32;;;;;;;20.70;11.00;;;;;;;-0.49;83.61;98665.59;250161;1148;22945;-80
2021/01/09 03:27:34;;;;;;;18.83;10.40;;;;;;;-0.44;84.28;98663.11;250086;1148;26121;-80
2021/01/09 03:32:37;;;;;;;14.77;8.33;;;;;;;-0.49;84.08;98665.59;250142;1148;22970;-79
2021/01/09 03:37:39;;;;;;;12.93;7.83;;;;;;;-0.59;84.44;98663.45;250226;1148;22977;-85
2021/01/09 03:42:42;;;;;;;15.15;8.60;;;;;;;-0.63;83.27;98668.37;250244;1148;23075;-77
2021/01/09 03:47:44;;;;;;;14.43;8.43;;;;;;;-0.64;83.99;98672.02;250161;1148;23180;-79
2021/01/09 03:52:46;;;;;;;15.80;8.90;;;;;;;-0.62;84.44;98672.59;250322;1148;22942;-78
2021/01/09 03:57:48;;;;;;;13.25;7.50;;;;;;;-0.61;84.08;98673.41;250319;1148;23473;-79
2021/01/09 04:02:51;;;;;;;13.07;8.63;;;;;;;-0.56;84.27;98678.80;250215;1148;23410;-78
2021/01/09 04:07:53;;;;;;;15.15;9.05;;;;;;;-0.52;83.58;98686.06;250481;1148;22938;-78
2021/01/09 04:12:56;;;;;;;15.40;9.50;;;;;;;-0.40;84.32;98688.77;250065;1148;23355;-78
2021/01/09 04:17:58;;;;;;;14.97;8.87;;;;;;;-0.32;83.95;98687.69;250064;1148;22953;-79
2021/01/09 04:23:04;;;;;;;14.93;8.17;;;;;;;-0.26;83.41;98688.63;250146;1148;26398;-80
2021/01/09 04:28:06;;;;;;;12.23;7.97;;;;;;;-0.27;83.84;98689.65;250488;1148;22935;-79
2021/01/09 04:33:09;;;;;;;15.03;8.63;;;;;;;-0.25;83.38;98692.86;250202;1148;22953;-79
2021/01/09 04:38:12;;;;;;;13.20;8.40;;;;;;;-0.30;83.37;98695.36;250867;1147;23003;-78
2021/01/09 04:43:16;;;;;;;15.43;9.43;;;;;;;-0.35;83.17;98696.00;250411;1148;22961;-81
2021/01/09 04:48:19;;;;;;;12.80;8.20;;;;;;;-0.44;83.85;98692.86;250490;1148;22963;-80
2021/01/09 04:53:23;;;;;;;16.87;9.53;;;;;;;-0.55;83.82;98699.64;250349;1148;22967;-80
2021/01/09 04:58:25;;;;;;;17.33;10.30;;;;;;;-0.59;84.00;98709.02;250356;1147;22940;-78
2021/01/09 05:03:27;;;;;;;16.07;9.00;;;;;;;-0.60;84.21;98717.92;250491;1148;23495;-80
2021/01/09 05:08:29;;;;;;;18.97;9.97;;;;;;;-0.55;83.71;98712.79;250747;1148;22930;-79
2021/01/09 05:13:33;;;;;;;18.60;10.25;;;;;;;-0.45;84.36;98719.39;250669;1147;23056;-77
2021/01/09 05:18:41;;;;;;;22.83;11.40;;;;;;;-0.44;84.16;98719.17;250185;1147;27749;-81
2021/01/09 05:23:59;;;;;;;24.35;12.80;;;;;;;-0.48;83.99;98719.83;250533;1148;25973;-80
2021/01/09 05:29:04;;;;;;;21.33;10.50;;;;;;;-0.48;83.40;98730.36;250076;1148;22964;-80
2021/01/09 05:34:07;;;;;;;22.27;9.90;;;;;;;-0.52;83.77;98730.80;250576;1148;26412;-79
2021/01/09 05:39:09;;;;;;;15.50;9.77;;;;;;;-0.58;82.81;98736.91;250528;1147;22950;-80
2021/01/09 05:44:12;;;;;;;19.07;10.80;;;;;;;-0.71;83.49;98737.84;250539;1148;22946;-79
2021/01/09 05:49:14;;;;;;;16.73;10.57;;;;;;;-0.83;82.95;98744.81;250520;1148;23067;-79
2021/01/09 05:54:17;;;;;;;16.87;9.77;;;;;;;-0.94;83.69;98748.14;250178;1146;22960;-80
2021/01/09 05:59:26;;;;;;;17.80;10.50;;;;;;;-1.02;83.06;98757.11;250346;1148;24572;-80
2021/01/09 06:04:33;;;;;;;18.02;10.23;;;;;;;-1.07;83.67;98760.36;250535;1148;23161;-80
2021/01/09 06:09:44;;;;;;;16.67;9.73;;;;;;;-1.10;84.03;98766.05;250610;1148;23077;-78
2021/01/09 06:14:48;;;;;;;16.55;9.20;;;;;;;-1.12;84.74;98777.79;250825;1148;22954;-80
2021/01/09 06:19:52;;;;;;;16.33;10.13;;;;;;;-1.18;84.22;98773.39;251337;1146;22977;-79
2021/01/09 06:24:55;;;;;;;19.00;10.00;;;;;;;-1.17;84.36;98782.89;251530;1148;22976;-79
2021/01/09 06:30:08;;;;;;;21.20;10.90;;;;;;;-1.18;84.82;98783.91;251490;1148;22967;-81
2021/01/09 06:35:12;;;;;;;15.27;8.33;;;;;;;-1.26;83.64;98788.40;251421;1148;24742;-80
2021/01/09 06:40:15;;;;;;;21.75;12.00;;;;;;;-1.31;84.60;98800.56;251361;1148;22899;-80
2021/01/09 06:45:17;;;;;;;17.93;10.07;;;;;;;-1.35;84.77;98804.63;251918;1148;22964;-79
2021/01/09 06:50:19;;;;;;;18.80;10.23;;;;;;;-1.40;84.17;98808.69;251269;1148;23046;-82
2021/01/09 06:55:37;;;;;;;16.87;10.00;;;;;;;-1.36;84.25;98813.52;251393;1148;23027;-79
2021/01/09 07:00:39;;;;;;;17.97;10.40;;;;;;;-1.31;84.71;98822.38;251283;1148;23042;-79
2021/01/09 07:05:47;;;;;;;18.50;10.97;;;;;;;-1.23;84.01;98826.61;251513;1148;22978;-80
2021/01/09 07:10:55;;;;;;;13.73;8.40;;;;;;;-1.11;84.53;98831.99;251496;1148;22960;-78
2021/01/09 07:16:07;;;;;;;21.97;11.63;;;;;;;-0.98;84.18;98837.19;251508;1148;22930;-79
2021/01/09 07:21:11;;;;;;;19.70;11.03;;;;;;;-0.77;84.94;98854.46;251582;1148;22917;-80
2021/01/09 07:26:17;;;;;;;20.33;10.73;;;;;;;-0.60;84.26;98853.92;251528;1148;22942;-79
2021/01/09 07:31:24;;;;;;;20.83;11.53;;;;;;;-0.48;85.10;98860.11;251384;1148;22981;-79
2021/01/09 07:36:29;;;;;;;24.67;12.63;;;;;;;-0.33;84.77;98869.55;251312;1148;23107;-83
2021/01/09 07:41:36;;;;;;;24.50;12.77;;;;;;;-0.26;84.37;98870.30;251247;1147;23394;-80
2021/01/09 07:46:58;;;;;;;19.50;10.93;;;;;;;-0.18;83.68;98875.30;251155;1147;23148;-79
2021/01/09 07:52:06;;;;;;;22.80;12.30;;;;;;;-0.10;84.46;98874.20;250754;1147;22953;-81
2021/01/09 07:57:17;;;;;;;25.50;13.97;;;;;;;-0.04;84.13;98881.25;250774;1147;27273;-79
2021/01/09 08:02:28;;;;;;;26.05;13.30;;;;;;;0.02;83.72;98883.01;250452;1148;22938;-79
2021/01/09 08:07:33;;;;;;;37.45;19.35;;;;;;;0.05;84.07;98885.20;250776;1147;26360;-78
2021/01/09 08:12:37;;;;;;;28.13;14.13;;;;;;;0.13;83.99;98892.03;251644;1147;23867;-80
2021/01/09 08:17:40;;;;;;;28.10;14.30;;;;;;;0.19;84.25;98893.00;250959;1147;22897;-78
2021/01/09 08:22:57;;;;;;;27.00;16.10;;;;;;;0.19;83.98;98898.27;251527;1148;22901;-78
2021/01/09 08:28:02;;;;;;;27.53;15.03;;;;;;;0.20;83.70;98899.85;251677;1148;23046;-78
2021/01/09 08:33:07;;;;;;;31.10;17.00;;;;;;;0.26;83.97;98899.00;250414;1147;23444;-78
2021/01/09 08:38:09;;;;;;;32.05;16.10;;;;;;;0.36;83.62;98915.11;250672;1147;23077;-79
2021/01/09 08:43:13;;;;;;;34.47;14.97;;;;;;;0.43;84.02;98921.11;250529;1148;22946;-79
2021/01/09 08:48:23;;;;;;;32.07;16.27;;;;;;;0.48;83.69;98933.66;250508;1147;23096;-79
2021/01/09 08:53:28;;;;;;;27.87;15.10;;;;;;;0.43;82.37;98939.56;251244;1147;22964;-79
2021/01/09 08:58:31;;;;;;;33.87;16.07;;;;;;;0.34;82.88;98939.05;250697;1148;23091;-78
2021/01/09 09:03:40;;;;;;;27.73;14.20;;;;;;;0.33;83.14;98931.36;250786;1148;22942;-79
2021/01/09 09:08:43;;;;;;;25.27;13.87;;;;;;;0.22;83.40;98934.71;250280;1148;22970;-78
2021/01/09 09:14:06;;;;;;;26.27;13.77;;;;;;;0.18;83.04;98934.33;250541;1147;23018;-78
2021/01/09 09:19:18;;;;;;;25.87;15.10;;;;;;;0.31;83.47;98936.06;250269;1148;22964;-80
2021/01/09 09:24:36;;;;;;;20.43;11.70;;;;;;;0.46;83.43;98939.16;250508;1148;23001;-79
2021/01/09 09:29:38;;;;;;;23.93;12.73;;;;;;;0.50;83.27;98937.70;250600;1148;22964;-80
2021/01/09 09:34:40;;;;;;;33.23;16.40;;;;;;;0.51;83.66;98926.11;250398;1148;22909;-79
2021/01/09 09:39:43;;;;;;;35.77;17.63;;;;;;;0.53;83.37;98933.00;250577;1148;23035;-80
2021/01/09 09:44:45;;;;;;;27.70;15.53;;;;;;;0.55;83.19;98933.60;250993;1148;23019;-80
2021/01/09 09:49:47;;;;;;;30.47;15.27;;;;;;;0.50;82.49;98936.88;251200;1147;23285;-80
2021/01/09 09:55:01;;;;;;;25.53;14.30;;;;;;;0.55;83.66;98930.97;250872;1148;22974;-80
2021/01/09 10:00:13;;;;;;;23.53;13.80;;;;;;;0.63;83.12;98933.28;250932;1148;24605;-80
2021/01/09 10:05:16;;;;;;;22.57;13.10;;;;;;;0.76;83.01;98927.09;251094;1147;22938;-81
2021/01/09 10:10:20;;;;;;;21.37;11.63;;;;;;;0.85;83.06;98929.20;250845;1148;23369;-79
2021/01/09 10:15:24;;;;;;;17.63;10.83;;;;;;;1.02;82.92;98925.94;250841;1147;22915;-77
2021/01/09 10:20:29;;;;;;;16.45;10.05;;;;;;;1.15;83.71;98928.43;250825;1147;23044;-82
2021/01/09 10:25:32;;;;;;;18.35;10.60;;;;;;;1.36;82.55;98931.62;251163;1147;22970;-76
2021/01/09 10:30:34;;;;;;;20.57;11.67;;;;;;;1.48;82.53;98921.91;250701;1147;22978;-79
2021/01/09 10:35:36;;;;;;;17.50;10.40;;;;;;;1.49;81.82;98923.50;251728;1147;22927;-79
2021/01/09 10:40:38;;;;;;;17.40;10.73;;;;;;;1.54;82.06;98926.27;251300;1147;22725;-82
2021/01/09 10:45:40;;;;;;;19.50;10.90;;;;;;;1.59;82.21;98928.23;251488;1147;22950;-81
2021/01/09 10:50:43;;;;;;;18.67;10.53;;;;;;;1.61;81.49;98926.19;250811;1147;24788;-82
2021/01/09 10:55:47;;;;;;;15.67;10.13;;;;;;;1.63;81.29;98918.03;250837;1148;23024;-81
2021/01/09 11:00:50;;;;;;;18.00;9.90;;;;;;;1.63;81.51;98918.83;251166;1148;23052;-79
2021/01/09 11:05:52;;;;;;;17.30;10.60;;;;;;;1.63;80.83;98925.95;251238;1148;22905;-79
2021/01/09 11:10:55;;;;;;;17.83;10.90;;;;;;;1.56;81.01;98923.41;251055;1148;26463;-77
2021/01/09 11:15:58;;;;;;;15.13;9.73;;;;;;;1.47;81.88;98940.59;251407;1148;22887;-79
2021/01/09 11:21:00;;;;;;;15.70;9.30;;;;;;;1.43;81.60;98934.14;251262;1148;22976;-80
2021/01/09 11:26:03;;;;;;;12.53;8.43;;;;;;;1.44;81.65;98927.84;251301;1148;22958;-79
2021/01/09 11:31:08;;;;;;;12.43;8.27;;;;;;;1.53;81.01;98922.02;251409;1147;22909;-80
2021/01/09 11:36:12;;;;;;;13.70;8.13;;;;;;;1.60;80.63;98934.34;251338;1147;22935;-79
2021/01/09 11:41:19;;;;;;;12.23;8.20;;;;;;;1.60;80.89;98932.49;251290;1147;22952;-80
2021/01/09 11:46:26;;;;;;;10.27;6.77;;;;;;;1.64;81.25;98943.42;250632;1148;22959;-78
2021/01/09 11:51:28;;;;;;;12.93;8.00;;;;;;;1.60;80.18;98939.63;250470;1147;25896;-78
2021/01/09 11:56:30;;;;;;;12.13;6.93;;;;;;;1.49;80.62;98949.90;250729;1148;22952;-78
2021/01/09 12:01:39;;;;;;;11.85;7.30;;;;;;;1.40;79.93;98945.16;250814;1148;23019;-81
2021/01/09 12:06:41;;;;;;;14.80;7.63;;;;;;;1.31;80.37;98948.11;251713;1147;22940;-79
2021/01/09 12:11:43;;;;;;;14.80;7.83;;;;;;;1.28;80.82;98945.92;250631;1148;22967;-80
2021/01/09 12:16:45;;;;;;;15.80;8.70;;;;;;;1.27;80.96;98946.14;250685;1147;25973;-79
2021/01/09 12:21:51;;;;;;;14.27;8.00;;;;;;;1.22;80.92;98944.19;250898;1147;26363;-80
2021/01/09 12:26:54;;;;;;;12.60;7.10;;;;;;;1.21;80.19;98941.77;251264;1147;23081;-77
2021/01/09 12:31:57;;;;;;;10.00;6.17;;;;;;;1.36;81.19;98937.69;250566;1148;22964;-78
2021/01/09 12:37:00;;;;;;;13.33;7.57;;;;;;;1.51;80.12;98921.45;250857;1147;23018;-79
2021/01/09 12:42:02;;;;;;;13.35;7.40;;;;;;;1.66;80.58;98936.86;250884;1146;22963;-79
2021/01/09 12:47:04;;;;;;;13.03;8.27;;;;;;;1.86;80.00;98938.39;250464;1147;22945;-80
2021/01/09 12:52:06;;;;;;;12.50;7.20;;;;;;;1.98;80.08;98930.50;251077;1147;24529;-78
2021/01/09 12:57:09;;;;;;;10.05;6.30;;;;;;;1.91;79.31;98935.09;250694;1147;23228;-80
2021/01/09 13:02:12;;;;;;;10.20;5.37;;;;;;;1.73;79.16;98933.33;251033;1148;22950;-80
2021/01/09 13:07:17;;;;;;;11.70;6.70;;;;;;;1.56;79.17;98933.97;251493;1147;22940;-79
2021/01/09 13:12:19;;;;;;;9.67;6.37;;;;;;;1.33;78.75;98930.23;250704;1147;23100;-79
2021/01/09 13:17:21;;;;;;;12.77;6.93;;;;;;;1.16;78.55;98940.60;250545;1148;22918;-79
2021/01/09 13:22:24;;;;;;;13.13;7.60;;;;;;;1.06;79.50;98942.15;250544;1152;23370;-79
2021/01/09 13:27:26;;;;;;;11.43;6.53;;;;;;;0.98;79.44;98954.62;250734;1150;23074;-78
2021/01/09 13:32:29;;;;;;;8.75;5.85;;;;;;;1.00;79.41;98963.10;250574;1148;22951;-79
2021/01/09 13:37:32;;;;;;;12.60;7.23;;;;;;;1.07;79.50;98963.03;250861;1147;26825;-79
2021/01/09 13:42:36;;;;;;;10.00;6.00;;;;;;;1.08;79.79;98984.94;250550;1148;22931;-81
2021/01/09 13:47:38;;;;;;;10.07;6.07;;;;;;;1.06;79.39;98977.24;250505;1148;23392;-81
2021/01/09 13:52:40;;;;;;;9.67;5.93;;;;;;;1.01;79.57;98985.83;250372;1148;22994;-80
2021/01/09 13:57:49;;;;;;;9.83;6.10;;;;;;;0.92;79.07;98991.62;250588;1148;22994;-80
2021/01/09 14:02:51;;;;;;;12.97;7.17;;;;;;;0.90;78.64;99001.59;250819;1148;22924;-80
2021/01/09 14:07:54;;;;;;;12.47;7.47;;;;;;;0.91;78.71;99001.38;250633;1148;22945;-80
2021/01/09 14:12:58;;;;;;;11.67;6.93;;;;;;;0.95;79.48;99007.00;250535;1148;23430;-81
2021/01/09 14:18:00;;;;;;;11.75;6.20;;;;;;;0.96;79.92;99016.53;250487;1147;23336;-80
2021/01/09 14:23:02;;;;;;;10.00;5.90;;;;;;;0.93;78.56;99017.77;250492;1153;22950;-83
2021/01/09 14:28:04;;;;;;;13.03;6.40;;;;;;;0.91;78.58;99019.84;250496;1147;22975;-80
2021/01/09 14:33:07;;;;;;;10.37;6.20;;;;;;;0.91;79.35;99026.92;250466;1153;23136;-80
2021/01/09 14:38:10;;;;;;;15.20;8.37;;;;;;;0.85;79.78;99023.33;250957;1147;22934;-80
2021/01/09 14:43:12;;;;;;;15.07;7.27;;;;;;;0.87;80.01;99023.11;250567;1155;22916;-80
2021/01/09 14:48:15;;;;;;;10.65;6.05;;;;;;;0.86;79.30;99027.59;250940;1147;22944;-79
2021/01/09 14:53:17;;;;;;;13.30;6.80;;;;;;;0.82;79.72;99036.96;250485;1150;22893;-80
2021/01/09 14:58:21;;;;;;;12.97;6.80;;;;;;;0.84;79.50;99042.84;251416;1148;22970;-80
2021/01/09 15:03:23;;;;;;;14.23;7.30;;;;;;;0.81;79.34;99038.80;250647;1148;27723;-80
2021/01/09 15:08:27;;;;;;;15.60;7.43;;;;;;;0.76;80.35;99041.28;250825;1148;23160;-79
2021/01/09 15:13:29;;;;;;;18.50;9.73;;;;;;;0.75;79.62;99038.86;251878;1148;23046;-80
2021/01/09 15:19:17;;;;;;;18.73;8.83;;;;;;;0.72;79.90;99048.01;251226;1147;24408;-83
2021/01/09 15:24:20;;;;;;;19.67;8.83;;;;;;;0.64;79.53;99058.83;250478;1148;22959;-78
2021/01/09 15:29:23;;;;;;;20.30;11.00;;;;;;;0.63;79.80;99062.48;251227;1148;22953;-80
2021/01/09 15:34:25;;;;;;;22.87;11.47;;;;;;;0.65;79.66;99065.72;251164;1150;22960;-80
2021/01/09 15:39:28;;;;;;;23.15;10.95;;;;;;;0.65;80.17;99074.43;250604;1147;22945;-79
2021/01/09 15:44:30;;;;;;;26.10;12.67;;;;;;;0.66;80.34;99075.25;250752;1147;22973;-79
2021/01/09 15:49:33;;;;;;;24.67;13.40;;;;;;;0.74;80.86;99079.44;250905;1148;22913;-79
2021/01/09 15:54:36;;;;;;;25.70;12.37;;;;;;;0.75;80.59;99071.30;250873;1147;22973;-79
2021/01/09 15:59:39;;;;;;;25.87;11.73;;;;;;;0.70;79.77;99076.44;251261;1148;22929;-80
2021/01/09 16:04:42;;;;;;;27.13;12.83;;;;;;;0.66;80.54;99078.69;251419;1150;22956;-79
2021/01/09 16:09:45;;;;;;;25.80;12.20;;;;;;;0.61;79.91;99080.36;250807;1147;23025;-79
2021/01/09 16:14:47;;;;;;;28.20;13.30;;;;;;;0.58;80.75;99083.43;250827;1147;27562;-80
2021/01/09 16:19:50;;;;;;;36.83;17.70;;;;;;;0.57;80.31;99087.88;250926;1147;22941;-80
2021/01/09 16:24:52;;;;;;;41.53;18.53;;;;;;;0.58;81.09;99092.14;250842;1148;22925;-79
2021/01/09 16:29:55;;;;;;;33.55;17.00;;;;;;;0.59;80.35;99090.30;250942;1147;22963;-80
2021/01/09 16:34:57;;;;;;;32.80;15.77;;;;;;;0.62;80.61;99097.80;250639;1148;23106;-80
2021/01/09 16:39:59;;;;;;;39.23;17.97;;;;;;;0.64;81.51;99095.74;250949;1148;22953;-79
2021/01/09 16:45:02;;;;;;;45.93;20.67;;;;;;;0.61;80.35;99099.61;250751;1152;22967;-81
2021/01/09 16:50:04;;;;;;;41.83;19.87;;;;;;;0.64;80.85;99095.74;250838;1148;22976;-78
2021/01/09 16:55:12;;;;;;;42.40;19.55;;;;;;;0.65;81.29;99102.64;250916;1148;28569;-81
2021/01/09 17:00:14;;;;;;;34.63;17.43;;;;;;;0.63;81.14;99100.22;250960;1147;23039;-80
2021/01/09 17:05:21;;;;;;;28.37;15.70;;;;;;;0.63;80.18;99110.77;250813;1150;23054;-81
2021/01/09 17:10:24;;;;;;;25.70;13.85;;;;;;;0.54;80.25;99104.13;250821;1148;23034;-81
2021/01/09 17:15:26;;;;;;;25.10;13.97;;;;;;;0.49;80.35;99110.05;251036;1148;22947;-78
2021/01/09 17:20:30;;;;;;;27.73;13.90;;;;;;;0.51;81.24;99108.00;251048;1148;22967;-79
2021/01/09 17:25:33;;;;;;;25.77;14.03;;;;;;;0.56;80.98;99119.73;250808;1148;22963;-79
2021/01/09 17:30:36;;;;;;;36.43;17.10;;;;;;;0.51;81.31;99118.55;250982;1148;22948;-80
2021/01/09 17:35:40;;;;;;;34.45;15.60;;;;;;;0.52;81.04;99119.38;250795;1153;22953;-79
2021/01/09 17:40:42;;;;;;;32.93;15.93;;;;;;;0.55;81.22;99118.14;250839;1147;22970;-80
2021/01/09 17:45:44;;;;;;;28.55;14.80;;;;;;;0.57;81.86;99116.87;250625;1155;23082;-80
2021/01/09 17:50:46;;;;;;;36.00;16.43;;;;;;;0.59;80.99;99127.20;250767;1147;23008;-77
2021/01/09 17:55:48;;;;;;;36.23;17.40;;;;;;;0.58;81.65;99122.98;250843;1152;23000;-79
2021/01/09 18:00:50;;;;;;;29.83;14.43;;;;;;;0.51;80.71;99115.11;250760;1148;22956;-79
2021/01/09 18:05:53;;;;;;;31.87;16.63;;;;;;;0.47;80.53;99135.80;250748;1148;22984;-80
2021/01/09 18:11:16;;;;;;;27.00;13.77;;;;;;;0.50;81.32;99137.21;250810;1148;23441;-80
2021/01/09 18:16:20;;;;;;;31.15;16.20;;;;;;;0.51;81.60;99136.20;250683;1148;22945;-80
2021/01/09 18:21:27;;;;;;;20.40;10.50;;;;;;;0.46;81.06;99136.84;250952;1146;26369;-80
2021/01/09 18:26:31;;;;;;;23.77;11.20;;;;;;;0.48;80.94;99140.06;250857;1147;23156;-79
2021/01/09 18:31:36;;;;;;;90.00;48.40;;;;;;;0.50;80.16;99143.31;250918;1148;22910;-79
2021/01/09 18:36:41;;;;;;;27.10;13.87;;;;;;;0.48;80.19;99145.34;250995;1147;27186;-79
2021/01/09 18:41:44;;;;;;;29.45;14.85;;;;;;;0.48;80.15;99150.61;250922;1147;23034;-80
2021/01/09 18:46:46;;;;;;;28.33;15.27;;;;;;;0.45;80.60;99148.41;251014;1149;23094;-79
2021/01/09 18:51:57;;;;;;;23.40;12.10;;;;;;;0.43;80.05;99147.00;250917;1148;22973;-79
2021/01/09 18:57:25;;;;;;;33.10;14.63;;;;;;;0.41;80.54;99159.59;251026;1148;23056;-78
2021/01/09 19:02:28;;;;;;;27.27;13.73;;;;;;;0.37;79.87;99153.92;251015;1147;26821;-79
2021/01/09 19:07:34;;;;;;;26.00;12.50;;;;;;;0.37;79.66;99155.77;251039;1150;23135;-80
2021/01/09 19:12:38;;;;;;;30.45;14.50;;;;;;;0.33;80.35;99152.73;251136;1148;23041;-81
2021/01/09 19:18:01;;;;;;;25.63;12.60;;;;;;;0.28;80.34;99150.74;250938;1148;22946;-82
2021/01/09 19:23:12;;;;;;;23.00;11.13;;;;;;;0.22;79.73;99150.77;250837;1147;27697;-79
2021/01/09 19:28:16;;;;;;;24.17;12.37;;;;;;;0.11;80.04;99160.14;250997;1152;23059;-80
2021/01/09 19:33:27;;;;;;;23.33;11.43;;;;;;;-0.01;80.05;99162.64;250828;1147;22946;-79
2021/01/09 19:38:33;;;;;;;30.63;14.70;;;;;;;-0.16;80.02;99160.27;250710;1148;22951;-80
2021/01/09 19:43:36;;;;;;;32.15;16.20;;;;;;;-0.29;79.43;99163.76;250871;1148;22998;-80
2021/01/09 19:48:43;;;;;;;35.53;17.13;;;;;;;-0.43;79.55;99170.09;250989;1153;22954;-79
2021/01/09 19:53:46;;;;;;;33.70;16.45;;;;;;;-0.54;80.22;99169.69;250952;1147;22998;-82
2021/01/09 19:58:48;;;;;;;30.40;15.40;;;;;;;-0.57;80.70;99169.31;250889;1147;27681;-81
2021/01/09 20:03:54;;;;;;;28.33;14.73;;;;;;;-0.67;81.23;99172.36;251095;1148;22948;-79
2021/01/09 20:08:59;;;;;;;29.30;14.93;;;;;;;-0.75;80.94;99177.83;251163;1151;22952;-78
2021/01/09 20:14:05;;;;;;;30.40;16.83;;;;;;;-0.78;81.85;99180.88;251258;1148;22995;-79
2021/01/09 20:19:13;;;;;;;26.85;14.70;;;;;;;-0.83;81.23;99180.67;250947;1147;24594;-78
2021/01/09 20:24:16;;;;;;;27.90;14.25;;;;;;;-0.86;82.01;99182.68;250943;1147;23066;-81
2021/01/09 20:29:19;;;;;;;29.40;16.10;;;;;;;-0.93;81.18;99187.14;251152;1148;23024;-79
2021/01/09 20:34:23;;;;;;;23.00;11.93;;;;;;;-1.03;81.80;99189.38;251099;1148;22907;-80
2021/01/09 20:39:27;;;;;;;27.77;14.43;;;;;;;-1.15;81.79;99183.89;250861;1152;22996;-80
2021/01/09 20:44:31;;;;;;;22.73;12.07;;;;;;;-1.22;82.15;99194.44;251091;1147;23035;-79
2021/01/09 20:49:33;;;;;;;25.83;12.17;;;;;;;-1.28;82.07;99192.59;251269;1149;22981;-81
2021/01/09 20:54:37;;;;;;;27.90;13.10;;;;;;;-1.29;81.69;99198.84;251433;1148;22996;-79
2021/01/09 20:59:39;;;;;;;27.03;13.63;;;;;;;-1.31;81.98;99200.87;251435;1147;23456;-79
2021/01/09 21:04:41;;;;;;;38.27;18.07;;;;;;;-1.32;81.64;99207.14;251239;1148;22984;-79
2021/01/09 21:09:43;;;;;;;27.50;13.37;;;;;;;-1.40;82.06;99205.52;251251;1153;23028;-77
2021/01/09 21:14:46;;;;;;;33.03;16.57;;;;;;;-1.49;81.98;99203.28;250895;1148;23350;-79
2021/01/09 21:19:48;;;;;;;43.90;19.60;;;;;;;-1.59;82.43;99203.66;250783;1148;23115;-79
2021/01/09 21:24:51;;;;;;;36.40;18.33;;;;;;;-1.69;82.18;99204.04;251073;1148;22944;-77
2021/01/09 21:29:53;;;;;;;46.83;21.77;;;;;;;-1.77;82.82;99205.02;251194;1152;22955;-78
2021/01/09 21:34:56;;;;;;;49.20;23.53;;;;;;;-1.84;82.17;99206.81;251016;1148;23109;-78
2021/01/09 21:40:00;;;;;;;54.10;23.73;;;;;;;-1.91;82.84;99216.48;251134;1152;22967;-78
2021/01/09 21:45:03;;;;;;;47.77;20.33;;;;;;;-1.95;82.70;99220.50;250981;1147;22948;-79
2021/01/09 21:50:05;;;;;;;49.67;21.67;;;;;;;-2.02;83.44;99225.72;251019;1148;22943;-78
2021/01/09 21:55:09;;;;;;;52.10;21.80;;;;;;;-2.09;82.84;99228.30;251004;1148;23003;-78
2021/01/09 22:00:13;;;;;;;52.85;21.75;;;;;;;-2.15;82.78;99228.30;250916;1148;23106;-77
2021/01/09 22:05:15;;;;;;;51.20;20.90;;;;;;;-2.21;83.36;99231.68;251053;1148;23033;-77
2021/01/09 22:10:18;;;;;;;49.55;20.40;;;;;;;-2.26;83.76;99227.81;250794;1150;22934;-78
2021/01/09 22:15:21;;;;;;;51.30;21.75;;;;;;;-2.30;83.98;99229.20;250853;1147;22941;-78
2021/01/09 22:20:23;;;;;;;45.53;20.60;;;;;;;-2.32;83.59;99223.36;250646;1148;22950;-80
2021/01/09 22:25:26;;;;;;;44.93;19.93;;;;;;;-2.32;83.59;99219.90;250601;1148;22950;-77
2021/01/09 22:30:29;;;;;;;48.17;20.53;;;;;;;-2.25;84.05;99229.45;250582;1152;22963;-77
2021/01/09 22:35:31;;;;;;;43.17;19.53;;;;;;;-2.12;84.06;99223.45;250685;1148;22971;-77
2021/01/09 22:40:34;;;;;;;45.57;19.80;;;;;;;-1.96;84.03;99222.33;250311;1148;22994;-78
2021/01/09 22:45:36;;;;;;;53.37;22.83;;;;;;;-1.84;83.44;99221.77;250560;1148;26424;-78
2021/01/09 22:50:39;;;;;;;57.07;26.50;;;;;;;-1.72;84.38;99223.63;250719;1148;23018;-77
2021/01/09 22:55:41;;;;;;;55.50;23.30;;;;;;;-1.63;83.49;99219.00;250420;1147;22925;-78
2021/01/09 23:00:43;;;;;;;57.20;24.33;;;;;;;-1.52;83.69;99222.87;250848;1148;22948;-78
2021/01/09 23:05:47;;;;;;;54.53;23.77;;;;;;;-1.44;83.74;99224.50;250889;1148;22995;-79
2021/01/09 23:10:49;;;;;;;56.85;25.00;;;;;;;-1.33;84.12;99229.20;250688;1151;22898;-78